Time;durP1;ratioP1;P1;durP2;ratioP2;P2;SDS_P1;SDS_P2;PMS_P1;PMS_P2;Temp;Humidity;BMP_temperature;BMP_pressure;BME280_temperature;BME280_humidity;BME280_pressure;Samples;Min_cycle;Max_cycle;Signal;HPM_P1;HPM_P2
2021/12/16 00:02:23;;;;;;;18.33;14.00;;;;;;;;;;4898465;29;20273;-69
2021/12/16 00:05:29;;;;;;;18.33;14.07;;;;;;;;;;4894437;29;20067;-71
2021/12/16 00:08:20;;;;;;;19.25;14.43;;;;;;;;;;4909446;28;20066;-69
2021/12/16 00:31:56;;;;;;;17.70;13.40;;;;;;;;;;4890848;29;20032;-71
2021/12/16 00:34:41;;;;;;;21.63;14.25;;;;;;;;;;4868430;29;20041;-68
2021/12/16 00:37:27;;;;;;;19.75;14.20;;;;;;;;;;4904497;28;20062;-70
2021/12/16 00:40:13;;;;;;;19.58;13.50;;;;;;;;;;4922315;29;20024;-67
2021/12/16 00:43:11;;;;;;;22.08;15.25;;;;;;;;;;4899988;29;20036;-65
2021/12/16 00:46:12;;;;;;;20.60;15.23;;;;;;;;;;4859096;29;20474;-66
2021/12/16 00:55:35;;;;;;;22.02;14.93;;;;;;;;;;4890399;29;20054;-67
2021/12/16 00:58:24;;;;;;;22.17;16.48;;;;;;;;;;4900652;29;20041;-70
2021/12/16 01:49:33;;;;;;;19.40;15.23;;;;;;;;;;4904788;29;20033;-70
2021/12/16 01:52:48;;;;;;;21.13;15.85;;;;;;;;;;4906374;29;20105;-70
2021/12/16 01:55:35;;;;;;;20.63;15.10;;;;;;;;;;4922443;29;20039;-70
2021/12/16 01:58:23;;;;;;;19.60;14.90;;;;;;;;;;4899872;29;20035;-69
2021/12/16 02:01:16;;;;;;;17.60;14.35;;;;;;;;;;4901330;29;20107;-73
2021/12/16 02:04:16;;;;;;;19.75;14.13;;;;;;;;;;4890485;29;20503;-69
2021/12/16 02:07:10;;;;;;;20.35;15.57;;;;;;;;;;4920828;28;21940;-69
2021/12/16 02:10:02;;;;;;;21.42;15.20;;;;;;;;;;4915146;29;20102;-70
2021/12/16 02:36:42;;;;;;;17.75;13.43;;;;;;;;;;4948452;28;20164;-65
2021/12/16 02:39:28;;;;;;;;;;;;;;;;;;4944832;28;20049;-66
2021/12/16 02:42:17;;;;;;;19.92;14.65;;;;;;;;;;4927799;29;19918;-65
2021/12/16 02:50:57;;;;;;;20.00;15.65;;;;;;;;;;4905053;29;20043;-67
2021/12/16 02:53:45;;;;;;;21.67;16.15;;;;;;;;;;4921125;28;20074;-64
2021/12/16 02:56:30;;;;;;;19.13;15.05;;;;;;;;;;4918946;29;20039;-66
2021/12/16 02:59:19;;;;;;;21.02;15.75;;;;;;;;;;4908291;29;20032;-66
2021/12/16 03:02:07;;;;;;;19.85;15.07;;;;;;;;;;4914232;29;20020;-67
2021/12/16 03:04:53;;;;;;;21.48;17.00;;;;;;;;;;4939990;28;20070;-70
2021/12/16 03:07:38;;;;;;;20.58;15.48;;;;;;;;;;4944250;28;20383;-64
2021/12/16 03:13:22;;;;;;;22.42;16.02;;;;;;;;;;4905613;29;20080;-65
2021/12/16 03:19:11;;;;;;;21.27;15.90;;;;;;;;;;4916793;29;20091;-65
2021/12/16 03:21:59;;;;;;;21.52;15.95;;;;;;;;;;4873743;29;20048;-68
2021/12/16 03:36:25;;;;;;;21.80;16.20;;;;;;;;;;4944610;28;20079;-70
2021/12/16 03:39:11;;;;;;;19.92;15.27;;;;;;;;;;4902652;29;20040;-70
2021/12/16 03:41:57;;;;;;;21.42;15.32;;;;;;;;;;4894495;28;20038;-68
2021/12/16 03:44:58;;;;;;;21.05;15.50;;;;;;;;;;4935714;28;20039;-69
2021/12/16 03:47:45;;;;;;;19.83;15.30;;;;;;;;;;4937420;28;20471;-68
2021/12/16 03:50:31;;;;;;;25.20;15.90;;;;;;;;;;4898043;29;20488;-70
2021/12/16 03:53:17;;;;;;;20.25;15.75;;;;;;;;;;4886501;29;20045;-69
2021/12/16 03:56:03;;;;;;;19.75;14.93;;;;;;;;;;4913088;29;20035;-69
2021/12/16 03:58:48;;;;;;;22.38;15.50;;;;;;;;;;4917551;29;20031;-65
2021/12/16 04:01:34;;;;;;;24.08;16.05;;;;;;;;;;4930698;29;20034;-69
2021/12/16 04:04:19;;;;;;;21.58;15.40;;;;;;;;;;4924797;28;20162;-68
2021/12/16 04:07:05;;;;;;;22.10;15.68;;;;;;;;;;4936074;28;20419;-68
2021/12/16 04:09:51;;;;;;;22.20;16.17;;;;;;;;;;4907106;29;20451;-68
2021/12/16 04:12:36;;;;;;;21.77;15.40;;;;;;;;;;4913016;29;20131;-70
2021/12/16 04:15:21;;;;;;;21.02;16.25;;;;;;;;;;4877217;29;20040;-70
2021/12/16 04:18:07;;;;;;;21.48;15.48;;;;;;;;;;4865410;29;20043;-69
2021/12/16 04:20:52;;;;;;;20.90;15.75;;;;;;;;;;4903319;29;20115;-70
2021/12/16 04:23:37;;;;;;;22.63;16.63;;;;;;;;;;4918101;29;20059;-69
2021/12/16 04:26:25;;;;;;;20.60;14.60;;;;;;;;;;4915269;28;20439;-72
2021/12/16 04:29:10;;;;;;;22.88;16.70;;;;;;;;;;4873761;29;20060;-69
2021/12/16 04:31:56;;;;;;;22.83;17.05;;;;;;;;;;4844435;29;20088;-67
2021/12/16 04:34:42;;;;;;;23.02;17.77;;;;;;;;;;4878210;29;20573;-67
2021/12/16 04:37:27;;;;;;;22.58;16.83;;;;;;;;;;4878135;29;20063;-70
2021/12/16 04:40:14;;;;;;;23.75;17.05;;;;;;;;;;4866139;29;20099;-71
2021/12/16 04:43:01;;;;;;;23.95;17.15;;;;;;;;;;4893780;29;20559;-70
2021/12/16 04:45:47;;;;;;;25.58;17.25;;;;;;;;;;4858271;29;20065;-73
2021/12/16 04:48:33;;;;;;;25.63;18.42;;;;;;;;;;4866376;29;20043;-69
2021/12/16 04:51:19;;;;;;;27.60;18.48;;;;;;;;;;4875708;29;20441;-70
2021/12/16 04:54:06;;;;;;;26.80;19.30;;;;;;;;;;4879346;29;20040;-67
2021/12/16 04:56:52;;;;;;;28.88;19.77;;;;;;;;;;4905909;28;20036;-65
2021/12/16 04:59:38;;;;;;;28.25;18.77;;;;;;;;;;4946245;28;20470;-66
2021/12/16 05:02:24;;;;;;;27.27;17.77;;;;;;;;;;4933140;28;20106;-66
2021/12/16 05:05:10;;;;;;;28.58;19.38;;;;;;;;;;4943212;29;20402;-69
2021/12/16 05:07:55;;;;;;;28.77;20.67;;;;;;;;;;4950676;28;20043;-65
2021/12/16 05:10:41;;;;;;;28.58;19.60;;;;;;;;;;4908486;29;20064;-65
2021/12/16 05:13:27;;;;;;;30.83;21.40;;;;;;;;;;4944849;28;20035;-68
2021/12/16 05:16:13;;;;;;;28.73;21.48;;;;;;;;;;4920354;28;20561;-68
2021/12/16 05:18:59;;;;;;;29.88;20.73;;;;;;;;;;4925993;28;20039;-71
2021/12/16 05:21:51;;;;;;;31.50;21.63;;;;;;;;;;4944828;28;20073;-69
2021/12/16 05:24:37;;;;;;;30.15;21.15;;;;;;;;;;4946315;28;20105;-69
2021/12/16 05:27:22;;;;;;;29.27;20.23;;;;;;;;;;4939591;28;20028;-70
2021/12/16 05:30:08;;;;;;;30.42;20.00;;;;;;;;;;4926196;28;20864;-64
2021/12/16 05:32:53;;;;;;;32.53;22.40;;;;;;;;;;4922787;29;20054;-68
2021/12/16 05:35:39;;;;;;;29.50;20.10;;;;;;;;;;4929875;29;20040;-66
2021/12/16 05:38:25;;;;;;;29.60;20.67;;;;;;;;;;4897208;29;20067;-64
2021/12/16 05:41:11;;;;;;;32.63;21.70;;;;;;;;;;4956543;28;20038;-67
2021/12/16 05:43:57;;;;;;;27.33;18.77;;;;;;;;;;4943805;28;20480;-64
2021/12/16 05:46:43;;;;;;;28.77;18.27;;;;;;;;;;4925252;29;20506;-65
2021/12/16 05:49:28;;;;;;;27.73;19.00;;;;;;;;;;4940733;28;20043;-65
2021/12/16 05:52:13;;;;;;;30.27;19.65;;;;;;;;;;4873011;29;20039;-68
2021/12/16 05:55:00;;;;;;;29.50;18.92;;;;;;;;;;4942095;28;20045;-68
2021/12/16 05:57:45;;;;;;;27.55;18.45;;;;;;;;;;4955648;28;20054;-68
2021/12/16 06:00:33;;;;;;;28.30;18.13;;;;;;;;;;4922590;29;20065;-67
2021/12/16 06:03:18;;;;;;;26.75;17.58;;;;;;;;;;4922468;28;20115;-70
2021/12/16 06:06:04;;;;;;;26.55;18.27;;;;;;;;;;4919639;29;20116;-67
2021/12/16 06:08:49;;;;;;;26.42;17.88;;;;;;;;;;4950872;28;20031;-70
2021/12/16 06:11:35;;;;;;;41.78;28.65;;;;;;;;;;4952504;28;20039;-69
2021/12/16 06:14:45;;;;;;;32.38;21.77;;;;;;;;;;4929277;29;20032;-69
2021/12/16 06:29:28;;;;;;;30.05;19.20;;;;;;;;;;4929143;29;20031;-67
2021/12/16 06:32:14;;;;;;;25.33;17.52;;;;;;;;;;4880069;29;20488;-66
2021/12/16 06:34:59;;;;;;;29.52;19.63;;;;;;;;;;4904100;29;20040;-65
2021/12/16 06:37:45;;;;;;;28.65;17.35;;;;;;;;;;4906009;29;20046;-66
2021/12/16 06:40:30;;;;;;;25.02;17.15;;;;;;;;;;4894432;29;20515;-65
2021/12/16 06:43:17;;;;;;;28.15;17.90;;;;;;;;;;4906198;29;20242;-69
2021/12/16 06:46:07;;;;;;;26.90;17.02;;;;;;;;;;4913359;29;20048;-70
2021/12/16 06:48:57;;;;;;;41.15;27.25;;;;;;;;;;4905351;29;20063;-72
2021/12/16 06:54:41;;;;;;;27.83;19.13;;;;;;;;;;4935222;28;20043;-70
2021/12/16 06:57:52;;;;;;;29.33;19.45;;;;;;;;;;4898240;29;20037;-69
2021/12/16 07:00:38;;;;;;;28.05;17.98;;;;;;;;;;4888495;29;20046;-70
2021/12/16 07:03:28;;;;;;;25.13;16.67;;;;;;;;;;4864883;29;20032;-69
2021/12/16 07:06:19;;;;;;;30.42;18.75;;;;;;;;;;4888773;29;20036;-65
2021/12/16 07:09:15;;;;;;;24.27;16.95;;;;;;;;;;4907186;29;20111;-65
2021/12/16 07:12:01;;;;;;;28.17;17.20;;;;;;;;;;4939302;28;20035;-65
2021/12/16 07:14:47;;;;;;;24.98;16.48;;;;;;;;;;4947456;28;20049;-67
2021/12/16 07:17:32;;;;;;;26.95;18.15;;;;;;;;;;4944331;28;20023;-65
2021/12/16 07:20:20;;;;;;;25.73;17.00;;;;;;;;;;4922593;28;20495;-65
2021/12/16 07:23:06;;;;;;;29.02;17.73;;;;;;;;;;4916856;28;20035;-69
2021/12/16 07:25:52;;;;;;;26.50;18.00;;;;;;;;;;4919677;29;20031;-71
2021/12/16 07:28:37;;;;;;;27.85;17.50;;;;;;;;;;4917198;28;21188;-70
2021/12/16 07:31:23;;;;;;;25.60;17.00;;;;;;;;;;4921895;28;20047;-72
2021/12/16 07:34:09;;;;;;;24.77;16.38;;;;;;;;;;4934306;29;20034;-70
2021/12/16 07:36:55;;;;;;;28.27;18.23;;;;;;;;;;4926350;29;20043;-70
2021/12/16 07:39:42;;;;;;;25.15;15.77;;;;;;;;;;4899208;29;20489;-66
2021/12/16 07:42:28;;;;;;;26.75;17.02;;;;;;;;;;4887459;29;20089;-72
2021/12/16 07:45:15;;;;;;;27.60;17.85;;;;;;;;;;4912789;29;20040;-71
2021/12/16 07:48:00;;;;;;;27.00;17.30;;;;;;;;;;4946426;28;20041;-71
2021/12/16 07:50:47;;;;;;;29.08;17.05;;;;;;;;;;4975123;28;20063;-70
2021/12/16 07:53:32;;;;;;;28.92;18.10;;;;;;;;;;4971810;28;20023;-71
2021/12/16 07:56:18;;;;;;;25.75;16.63;;;;;;;;;;4952079;28;20042;-72
2021/12/16 07:59:03;;;;;;;28.40;17.33;;;;;;;;;;4944351;28;20470;-68
2021/12/16 08:01:49;;;;;;;26.17;17.13;;;;;;;;;;4947793;28;20118;-69
2021/12/16 08:04:40;;;;;;;28.52;17.23;;;;;;;;;;4924532;28;20106;-65
2021/12/16 08:07:26;;;;;;;26.58;16.65;;;;;;;;;;4958762;28;20096;-67
2021/12/16 08:10:14;;;;;;;27.55;17.33;;;;;;;;;;4942625;28;20039;-65
2021/12/16 08:13:00;;;;;;;27.48;17.23;;;;;;;;;;4942140;28;20051;-68
2021/12/16 08:15:45;;;;;;;25.38;16.58;;;;;;;;;;4915572;28;20070;-71
2021/12/16 08:18:31;;;;;;;26.35;16.92;;;;;;;;;;4887779;28;20042;-69
2021/12/16 08:21:17;;;;;;;26.52;17.98;;;;;;;;;;4951028;28;20042;-66
2021/12/16 08:24:04;;;;;;;25.92;17.95;;;;;;;;;;4946867;28;20074;-64
2021/12/16 08:26:50;;;;;;;28.65;17.38;;;;;;;;;;4948767;28;20035;-68
2021/12/16 08:29:36;;;;;;;24.35;15.45;;;;;;;;;;4947110;28;20023;-68
2021/12/16 08:32:21;;;;;;;24.80;15.73;;;;;;;;;;4944728;28;20125;-67
2021/12/16 08:35:07;;;;;;;25.80;16.83;;;;;;;;;;4947292;28;20093;-71
2021/12/16 08:37:52;;;;;;;23.38;15.25;;;;;;;;;;4960376;28;20516;-69
2021/12/16 08:40:41;;;;;;;21.90;14.65;;;;;;;;;;4946213;28;20077;-65
2021/12/16 08:43:27;;;;;;;21.90;15.83;;;;;;;;;;4942064;29;20035;-65
2021/12/16 08:46:14;;;;;;;24.15;15.43;;;;;;;;;;4904524;29;20100;-68
2021/12/16 08:48:59;;;;;;;26.85;15.73;;;;;;;;;;4924560;29;20031;-68
2021/12/16 08:51:47;;;;;;;22.98;15.05;;;;;;;;;;4960367;28;20102;-67
2021/12/16 08:54:33;;;;;;;24.17;16.52;;;;;;;;;;4931340;28;20046;-67
2021/12/16 08:57:18;;;;;;;24.48;15.65;;;;;;;;;;4950579;28;20042;-66
2021/12/16 09:00:06;;;;;;;25.20;16.13;;;;;;;;;;4910966;28;20045;-72
2021/12/16 09:02:51;;;;;;;26.48;17.13;;;;;;;;;;4884253;29;20036;-68
2021/12/16 09:05:36;;;;;;;22.40;15.60;;;;;;;;;;4937212;28;20684;-68
2021/12/16 09:08:22;;;;;;;24.00;16.10;;;;;;;;;;4887792;29;20506;-68
2021/12/16 09:11:09;;;;;;;23.42;15.75;;;;;;;;;;4908837;28;20086;-66
2021/12/16 09:13:55;;;;;;;24.35;15.77;;;;;;;;;;4925643;29;20103;-67
2021/12/16 09:16:41;;;;;;;21.95;14.32;;;;;;;;;;4923097;29;20031;-72
2021/12/16 09:19:26;;;;;;;23.17;15.57;;;;;;;;;;4910222;29;20588;-69
2021/12/16 09:22:15;;;;;;;22.35;14.25;;;;;;;;;;4902297;29;20531;-68
2021/12/16 09:25:01;;;;;;;20.40;14.68;;;;;;;;;;4867569;29;20048;-66
2021/12/16 09:27:46;;;;;;;24.73;16.23;;;;;;;;;;4854551;29;20405;-67
2021/12/16 09:30:34;;;;;;;20.80;14.25;;;;;;;;;;4880731;29;20506;-69
2021/12/16 09:33:22;;;;;;;22.17;14.73;;;;;;;;;;4928837;28;20051;-65
2021/12/16 09:36:08;;;;;;;22.58;14.77;;;;;;;;;;4928417;29;20506;-64
2021/12/16 09:38:54;;;;;;;22.55;15.77;;;;;;;;;;4943036;28;20058;-63
2021/12/16 09:41:45;;;;;;;23.77;14.98;;;;;;;;;;4922859;28;20034;-66
2021/12/16 09:44:30;;;;;;;26.23;16.55;;;;;;;;;;4956591;28;20050;-68
2021/12/16 09:47:16;;;;;;;21.55;14.95;;;;;;;;;;4978959;28;20441;-71
2021/12/16 09:50:04;;;;;;;22.48;14.77;;;;;;;;;;4967646;28;20027;-72
2021/12/16 09:52:49;;;;;;;24.38;16.02;;;;;;;;;;4972315;28;20074;-67
2021/12/16 09:55:35;;;;;;;22.30;15.82;;;;;;;;;;4973944;28;20489;-67
2021/12/16 09:58:20;;;;;;;23.88;15.52;;;;;;;;;;4980208;28;20051;-68
2021/12/16 10:01:06;;;;;;;23.10;15.20;;;;;;;;;;4959896;28;20033;-70
2021/12/16 10:03:54;;;;;;;26.20;16.15;;;;;;;;;;4968482;28;20019;-67
2021/12/16 10:06:40;;;;;;;25.38;16.73;;;;;;;;;;4965397;28;20030;-71
2021/12/16 10:09:27;;;;;;;24.75;16.30;;;;;;;;;;4958529;28;20049;-65
2021/12/16 10:12:17;;;;;;;24.33;15.98;;;;;;;;;;4976311;28;21021;-67
2021/12/16 10:17:21;;;;;;;23.70;16.02;;;;;;;;;;4956105;28;20443;-66
2021/12/16 10:18:15;;;;;;;20.98;14.65;;;;;;;;;;4948330;28;20038;-65
2021/12/16 10:21:03;;;;;;;25.80;16.42;;;;;;;;;;4959234;28;20478;-66
2021/12/16 10:23:48;;;;;;;22.63;15.32;;;;;;;;;;4945394;28;20062;-67
2021/12/16 10:26:33;;;;;;;23.63;14.52;;;;;;;;;;4919003;29;20089;-68
2021/12/16 10:29:19;;;;;;;23.30;14.98;;;;;;;;;;4928245;29;20038;-66
2021/12/16 10:32:05;;;;;;;20.58;14.23;;;;;;;;;;4924452;28;20499;-67
2021/12/16 10:34:58;;;;;;;23.60;16.17;;;;;;;;;;4959552;28;20070;-64
2021/12/16 10:37:50;;;;;;;22.40;14.45;;;;;;;;;;4957664;28;20118;-65
2021/12/16 10:40:43;;;;;;;19.73;13.82;;;;;;;;;;4960467;28;20486;-65
2021/12/16 10:43:30;;;;;;;24.25;15.43;;;;;;;;;;4963611;28;20158;-65
2021/12/16 10:46:23;;;;;;;24.48;15.32;;;;;;;;;;4968483;28;20034;-68
2021/12/16 10:49:13;;;;;;;24.27;15.93;;;;;;;;;;4969335;28;20031;-68
2021/12/16 10:52:01;;;;;;;22.70;15.70;;;;;;;;;;4936750;28;21818;-68
2021/12/16 10:54:47;;;;;;;22.40;14.55;;;;;;;;;;4948751;28;20090;-70
2021/12/16 10:57:33;;;;;;;25.40;15.73;;;;;;;;;;4959825;28;20034;-69
2021/12/16 11:00:18;;;;;;;29.55;16.27;;;;;;;;;;4947377;28;20057;-68
2021/12/16 11:03:03;;;;;;;25.48;16.08;;;;;;;;;;4931912;28;20477;-70
2021/12/16 11:05:49;;;;;;;20.73;14.63;;;;;;;;;;4930491;29;20050;-69
2021/12/16 11:08:34;;;;;;;21.85;15.63;;;;;;;;;;4937421;28;20034;-68
2021/12/16 11:11:29;;;;;;;23.85;15.57;;;;;;;;;;4932711;28;20046;-69
2021/12/16 11:14:22;;;;;;;24.10;15.05;;;;;;;;;;4950050;28;20034;-70
2021/12/16 11:17:09;;;;;;;22.42;15.18;;;;;;;;;;4968086;28;20034;-68
2021/12/16 11:20:10;;;;;;;26.02;16.00;;;;;;;;;;4929826;28;20039;-66
2021/12/16 11:22:57;;;;;;;22.05;15.27;;;;;;;;;;4947216;28;20440;-69
2021/12/16 11:25:44;;;;;;;22.67;15.00;;;;;;;;;;4931405;28;20041;-68
2021/12/16 11:28:31;;;;;;;22.98;14.35;;;;;;;;;;4927745;28;20074;-72
2021/12/16 11:31:18;;;;;;;22.60;14.45;;;;;;;;;;4935878;28;20131;-71
2021/12/16 11:34:06;;;;;;;25.55;16.35;;;;;;;;;;4937025;29;20495;-71
2021/12/16 11:36:53;;;;;;;23.25;15.45;;;;;;;;;;4914962;28;20095;-71
2021/12/16 11:39:39;;;;;;;22.30;14.80;;;;;;;;;;4910189;29;20495;-69
2021/12/16 11:42:27;;;;;;;23.30;16.08;;;;;;;;;;4926133;28;20039;-67
2021/12/16 11:45:28;;;;;;;21.38;14.13;;;;;;;;;;4936101;28;20413;-67
2021/12/16 11:48:26;;;;;;;25.73;15.93;;;;;;;;;;4897476;29;20036;-72
2021/12/16 11:51:20;;;;;;;25.88;16.50;;;;;;;;;;4898346;29;20509;-72
2021/12/16 11:54:13;;;;;;;26.10;17.00;;;;;;;;;;4902960;29;21455;-74
2021/12/16 11:57:01;;;;;;;28.77;17.70;;;;;;;;;;4922705;29;20039;-71
2021/12/16 11:59:46;;;;;;;28.67;16.20;;;;;;;;;;4923965;28;20471;-70
2021/12/16 12:02:36;;;;;;;26.27;16.85;;;;;;;;;;4911306;29;20088;-71
2021/12/16 12:05:27;;;;;;;30.08;17.88;;;;;;;;;;4903489;29;20051;-69
2021/12/16 12:08:16;;;;;;;26.52;17.73;;;;;;;;;;4921238;29;20059;-72
2021/12/16 12:11:06;;;;;;;27.90;17.00;;;;;;;;;;4917183;29;20074;-71
2021/12/16 12:13:51;;;;;;;;;;;;;;;;;;4935262;28;20276;-75
2021/12/16 12:16:39;;;;;;;23.67;15.82;;;;;;;;;;4948627;28;19960;-65
2021/12/16 12:19:24;;;;;;;25.65;16.98;;;;;;;;;;4933477;28;20047;-81
2021/12/16 12:22:10;;;;;;;27.15;15.90;;;;;;;;;;4945517;28;20473;-72
2021/12/16 12:24:56;;;;;;;24.05;16.08;;;;;;;;;;4921516;28;20454;-71
2021/12/16 12:27:41;;;;;;;23.35;16.48;;;;;;;;;;4948454;28;20035;-72
2021/12/16 12:30:26;;;;;;;26.45;16.95;;;;;;;;;;4938261;29;20122;-73
2021/12/16 12:33:11;;;;;;;23.55;15.63;;;;;;;;;;4887027;29;20027;-67
2021/12/16 12:35:57;;;;;;;24.90;16.15;;;;;;;;;;4945944;28;20697;-66
2021/12/16 12:38:42;;;;;;;31.15;18.13;;;;;;;;;;4913465;29;20038;-74
2021/12/16 12:41:28;;;;;;;25.88;17.60;;;;;;;;;;4878426;29;20059;-73
2021/12/16 12:44:13;;;;;;;24.38;16.30;;;;;;;;;;4887016;29;20097;-70
2021/12/16 12:47:06;;;;;;;26.60;15.95;;;;;;;;;;4898253;29;20039;-77
2021/12/16 12:50:04;;;;;;;25.15;17.23;;;;;;;;;;4896136;29;20031;-73
2021/12/16 12:52:52;;;;;;;24.10;16.77;;;;;;;;;;4865366;29;20118;-66
2021/12/16 12:55:37;;;;;;;26.02;15.23;;;;;;;;;;4893830;29;20028;-70
2021/12/16 12:58:24;;;;;;;22.13;15.52;;;;;;;;;;4895852;29;20032;-70
2021/12/16 13:01:09;;;;;;;24.00;16.45;;;;;;;;;;4914092;29;20079;-68
2021/12/16 13:04:01;;;;;;;25.70;16.65;;;;;;;;;;4884498;29;20337;-69
2021/12/16 13:06:57;;;;;;;23.15;16.10;;;;;;;;;;4861543;29;20602;-69
2021/12/16 13:09:44;;;;;;;25.23;15.73;;;;;;;;;;4884675;29;20027;-69
2021/12/16 13:12:35;;;;;;;26.33;16.17;;;;;;;;;;4901860;29;20132;-65
2021/12/16 13:15:46;;;;;;;30.30;17.00;;;;;;;;;;4889592;29;20044;-67
2021/12/16 13:27:35;;;;;;;25.85;16.33;;;;;;;;;;4894617;29;20020;-69
2021/12/16 13:30:27;;;;;;;23.52;15.27;;;;;;;;;;4915705;29;20028;-72
2021/12/16 13:33:22;;;;;;;26.23;16.17;;;;;;;;;;4964016;28;20046;-67
2021/12/16 13:36:17;;;;;;;25.02;17.50;;;;;;;;;;4933052;29;20127;-66
2021/12/16 13:39:07;;;;;;;22.98;15.98;;;;;;;;;;4922999;29;20083;-68
2021/12/16 13:41:52;;;;;;;25.65;14.90;;;;;;;;;;4924785;29;20121;-65
2021/12/16 13:44:48;;;;;;;23.35;15.38;;;;;;;;;;4895613;29;20389;-70
2021/12/16 14:01:00;;;;;;;22.10;15.20;;;;;;;;;;4880550;29;19919;-65
2021/12/16 14:02:59;;;;;;;23.20;15.35;;;;;;;;;;4878777;29;20025;-66
2021/12/16 14:08:35;;;;;;;22.92;14.30;;;;;;;;;;4830613;29;20666;-67
2021/12/16 14:12:09;;;;;;;24.55;14.75;;;;;;;;;;4820281;29;20030;-69
2021/12/16 14:23:39;;;;;;;23.23;15.73;;;;;;;;;;4864018;29;20045;-65
2021/12/16 14:33:42;;;;;;;23.63;15.32;;;;;;;;;;4803470;29;20050;-69
2021/12/16 14:47:15;;;;;;;23.90;16.23;;;;;;;;;;4902473;29;20111;-69
2021/12/16 14:50:01;;;;;;;23.33;15.77;;;;;;;;;;4867156;29;20044;-66
2021/12/16 14:52:46;;;;;;;22.13;14.68;;;;;;;;;;4838807;29;20215;-67
2021/12/16 14:55:32;;;;;;;27.58;14.05;;;;;;;;;;4865589;29;20037;-67
2021/12/16 14:58:21;;;;;;;24.50;14.50;;;;;;;;;;4845048;29;20195;-67
2021/12/16 15:01:09;;;;;;;24.38;15.32;;;;;;;;;;4850212;29;20041;-70
2021/12/16 15:03:54;;;;;;;22.90;13.90;;;;;;;;;;4873541;29;20055;-70
2021/12/16 15:06:46;;;;;;;27.23;15.40;;;;;;;;;;4883458;29;20116;-69
2021/12/16 15:09:36;;;;;;;23.98;14.60;;;;;;;;;;4868355;29;20055;-69
2021/12/16 15:12:41;;;;;;;24.38;15.65;;;;;;;;;;4867644;29;20032;-67
2021/12/16 15:15:35;;;;;;;25.33;14.82;;;;;;;;;;4859039;29;20069;-71
2021/12/16 15:42:57;;;;;;;22.20;15.68;;;;;;;;;;4853769;29;20037;-69
2021/12/16 15:45:45;;;;;;;22.20;15.73;;;;;;;;;;4857874;29;20129;-69
2021/12/16 15:48:30;;;;;;;26.92;14.63;;;;;;;;;;4843712;29;20057;-70
2021/12/16 15:51:17;;;;;;;25.55;13.63;;;;;;;;;;4822088;29;20040;-71
2021/12/16 15:54:04;;;;;;;26.85;14.10;;;;;;;;;;4856571;29;20400;-70
2021/12/16 15:56:49;;;;;;;24.17;14.43;;;;;;;;;;4866786;29;20464;-71
2021/12/16 15:59:47;;;;;;;23.35;15.75;;;;;;;;;;4862479;29;20505;-64
2021/12/16 16:02:33;;;;;;;27.65;15.05;;;;;;;;;;4871713;29;20118;-66
2021/12/16 16:05:18;;;;;;;22.15;14.43;;;;;;;;;;4914813;29;21578;-69
2021/12/16 16:08:05;;;;;;;51.55;32.03;;;;;;;;;;4907939;29;21469;-67
2021/12/16 16:10:52;;;;;;;32.00;18.30;;;;;;;;;;4898866;29;20042;-67
2021/12/16 16:13:48;;;;;;;23.83;15.27;;;;;;;;;;4870610;29;20037;-64
2021/12/16 16:16:40;;;;;;;26.63;16.27;;;;;;;;;;4893093;29;20037;-65
2021/12/16 16:19:28;;;;;;;29.15;16.25;;;;;;;;;;4894374;29;20035;-74
2021/12/16 16:22:14;;;;;;;22.95;13.77;;;;;;;;;;4891202;29;20417;-73
2021/12/16 16:25:03;;;;;;;27.83;14.23;;;;;;;;;;4911439;29;20519;-72
2021/12/16 16:27:48;;;;;;;25.50;13.65;;;;;;;;;;4935612;28;20453;-71
2021/12/16 16:30:34;;;;;;;25.38;15.93;;;;;;;;;;4940782;28;20039;-71
2021/12/16 16:33:22;;;;;;;28.88;16.75;;;;;;;;;;4903832;28;20522;-65
2021/12/16 16:36:09;;;;;;;26.13;16.55;;;;;;;;;;4898315;29;20515;-69
2021/12/16 16:38:55;;;;;;;37.03;26.15;;;;;;;;;;4913473;29;20509;-69
2021/12/16 16:41:42;;;;;;;38.15;25.90;;;;;;;;;;4917157;29;20093;-69
2021/12/16 16:44:28;;;;;;;31.30;21.50;;;;;;;;;;4937793;28;20327;-71
2021/12/16 16:47:17;;;;;;;33.08;19.05;;;;;;;;;;4941856;28;20031;-72
2021/12/16 16:50:05;;;;;;;61.20;38.00;;;;;;;;;;4969665;28;20046;-70
2021/12/16 16:52:52;;;;;;;35.75;22.25;;;;;;;;;;4940863;28;20055;-70
2021/12/16 16:55:37;;;;;;;26.58;15.80;;;;;;;;;;4905410;28;20028;-73
2021/12/16 16:58:22;;;;;;;24.92;15.27;;;;;;;;;;4946395;28;20034;-74
2021/12/16 17:01:08;;;;;;;21.13;14.50;;;;;;;;;;4936125;29;20481;-74
2021/12/16 17:03:53;;;;;;;22.88;14.35;;;;;;;;;;4933529;29;20027;-77
2021/12/16 17:06:42;;;;;;;22.73;14.70;;;;;;;;;;4915234;29;20063;-76
2021/12/16 17:09:32;;;;;;;24.35;15.20;;;;;;;;;;4945086;28;20038;-67
2021/12/16 17:12:17;;;;;;;26.50;16.08;;;;;;;;;;4881973;29;20049;-68
2021/12/16 17:15:27;;;;;;;30.85;15.43;;;;;;;;;;4873580;29;20101;-68
2021/12/16 17:18:12;;;;;;;;;;;;;;;;;;4886631;29;20037;-68
2021/12/16 17:21:00;;;;;;;24.05;15.07;;;;;;;;;;4870352;29;20411;-68
2021/12/16 17:23:50;;;;;;;24.15;13.98;;;;;;;;;;4888421;29;20032;-68
2021/12/16 17:26:37;;;;;;;25.20;15.10;;;;;;;;;;4920179;29;20743;-68
2021/12/16 17:29:24;;;;;;;22.73;14.80;;;;;;;;;;4928528;28;20064;-66
2021/12/16 17:32:12;;;;;;;26.02;14.57;;;;;;;;;;4887233;29;20049;-71
2021/12/16 17:34:57;;;;;;;21.98;13.63;;;;;;;;;;4875600;29;20107;-73
2021/12/16 17:37:44;;;;;;;27.08;14.57;;;;;;;;;;4893192;29;20036;-72
2021/12/16 17:40:32;;;;;;;22.63;15.00;;;;;;;;;;4888176;29;20025;-72
2021/12/16 17:43:39;;;;;;;22.83;14.50;;;;;;;;;;4912870;29;20044;-73
2021/12/16 17:46:24;;;;;;;22.50;14.45;;;;;;;;;;4927163;29;20672;-65
2021/12/16 17:49:10;;;;;;;25.83;15.00;;;;;;;;;;4884096;29;20036;-69
2021/12/16 17:51:55;;;;;;;21.70;14.15;;;;;;;;;;4862064;29;20477;-68
2021/12/16 17:54:41;;;;;;;22.27;14.40;;;;;;;;;;4822964;29;20040;-71
2021/12/16 17:57:35;;;;;;;25.75;13.52;;;;;;;;;;4869845;29;20043;-68
2021/12/16 18:00:20;;;;;;;25.40;15.25;;;;;;;;;;4868917;29;20484;-68
2021/12/16 18:03:06;;;;;;;23.33;14.07;;;;;;;;;;4899708;29;21019;-67
2021/12/16 18:05:53;;;;;;;29.08;14.55;;;;;;;;;;4847360;29;20144;-67
2021/12/16 18:08:41;;;;;;;20.35;12.88;;;;;;;;;;4873806;29;20036;-68
2021/12/16 18:11:28;;;;;;;37.97;22.05;;;;;;;;;;4870400;29;20045;-67
2021/12/16 18:14:16;;;;;;;27.27;16.80;;;;;;;;;;4861953;29;20157;-70
2021/12/16 18:17:06;;;;;;;25.85;14.50;;;;;;;;;;4867669;29;20397;-70
2021/12/16 18:19:52;;;;;;;21.58;14.00;;;;;;;;;;4843391;29;20041;-73
2021/12/16 18:22:41;;;;;;;21.98;13.52;;;;;;;;;;4847659;29;20038;-69
2021/12/16 18:25:34;;;;;;;24.45;14.00;;;;;;;;;;4843775;29;20036;-70
2021/12/16 18:28:25;;;;;;;25.80;14.80;;;;;;;;;;4814281;29;20053;-68
2021/12/16 18:31:12;;;;;;;24.98;15.40;;;;;;;;;;4859610;29;20037;-68
2021/12/16 18:33:59;;;;;;;27.90;15.48;;;;;;;;;;4859963;29;20040;-66
2021/12/16 18:36:46;;;;;;;23.38;13.93;;;;;;;;;;4866670;29;20033;-69
2021/12/16 18:39:37;;;;;;;23.45;14.60;;;;;;;;;;4894496;29;20368;-68
2021/12/16 18:42:24;;;;;;;22.85;14.38;;;;;;;;;;4908713;29;20107;-67
2021/12/16 18:45:11;;;;;;;23.40;14.93;;;;;;;;;;4895369;29;20138;-66
2021/12/16 18:48:23;;;;;;;27.45;15.35;;;;;;;;;;4908381;29;20047;-69
2021/12/16 18:51:33;;;;;;;24.33;16.02;;;;;;;;;;4874059;29;20031;-70
2021/12/16 18:54:30;;;;;;;19.42;13.55;;;;;;;;;;4890654;29;20144;-68
2021/12/16 18:57:18;;;;;;;21.67;14.77;;;;;;;;;;4916848;28;20042;-67
2021/12/16 19:00:05;;;;;;;24.00;14.43;;;;;;;;;;4887475;29;20044;-70
2021/12/16 19:02:50;;;;;;;20.42;12.52;;;;;;;;;;4884569;29;20074;-70
2021/12/16 19:05:39;;;;;;;19.50;13.82;;;;;;;;;;4898134;29;20036;-75
2021/12/16 19:08:25;;;;;;;22.02;15.13;;;;;;;;;;4910262;28;20441;-75
2021/12/16 19:11:10;;;;;;;20.85;13.80;;;;;;;;;;4902356;29;20586;-70
2021/12/16 19:13:56;;;;;;;22.05;13.30;;;;;;;;;;4934780;29;20039;-72
2021/12/16 19:16:41;;;;;;;23.58;15.02;;;;;;;;;;4913113;29;20059;-69
2021/12/16 19:19:28;;;;;;;21.70;14.90;;;;;;;;;;4917179;29;20668;-66
2021/12/16 19:22:15;;;;;;;22.15;14.38;;;;;;;;;;4927167;29;20500;-72
2021/12/16 19:25:00;;;;;;;24.63;16.05;;;;;;;;;;4866348;29;20088;-73
2021/12/16 19:27:46;;;;;;;33.17;21.25;;;;;;;;;;4902784;29;20075;-73
2021/12/16 19:30:33;;;;;;;23.23;14.40;;;;;;;;;;4936524;28;20036;-69
2021/12/16 19:33:19;;;;;;;20.38;12.10;;;;;;;;;;4929086;28;20479;-70
2021/12/16 19:36:06;;;;;;;24.10;13.95;;;;;;;;;;4928152;29;20035;-70
2021/12/16 19:38:52;;;;;;;21.73;13.48;;;;;;;;;;4901177;29;20045;-65
2021/12/16 19:41:38;;;;;;;28.02;14.93;;;;;;;;;;4938002;28;20600;-66
2021/12/16 19:44:25;;;;;;;21.45;12.82;;;;;;;;;;4907574;28;20051;-66
2021/12/16 19:47:10;;;;;;;21.15;13.35;;;;;;;;;;4879269;29;20108;-65
2021/12/16 19:49:56;;;;;;;21.23;12.75;;;;;;;;;;4857131;29;20037;-63
2021/12/16 19:52:41;;;;;;;21.77;13.70;;;;;;;;;;4877673;29;20119;-65
2021/12/16 19:55:27;;;;;;;22.80;13.00;;;;;;;;;;4899952;29;20086;-66